sensor_id;sensor_type;location;lat;lon;timestamp;pressure;altitude;pressure_sealevel;temperature;humidity
69257;BME280;56376;53.356;-1.748;2023-03-11T00:00:30;98862.03;;;-2.88;90.35
69257;BME280;56376;53.356;-1.748;2023-03-11T00:02:58;98877.38;;;-2.87;89.98
69257;BME280;56376;53.356;-1.748;2023-03-11T00:05:29;98875.63;;;-2.91;90.00
69257;BME280;56376;53.356;-1.748;2023-03-11T00:07:55;98875.59;;;-2.95;90.32
69257;BME280;56376;53.356;-1.748;2023-03-11T00:10:25;98879.84;;;-2.99;90.59
69257;BME280;56376;53.356;-1.748;2023-03-11T00:12:51;98884.06;;;-3.01;90.23
69257;BME280;56376;53.356;-1.748;2023-03-11T00:15:17;98886.59;;;-3.06;89.57
69257;BME280;56376;53.356;-1.748;2023-03-11T00:17:42;98881.50;;;-3.07;90.41
69257;BME280;56376;53.356;-1.748;2023-03-11T00:20:18;98873.81;;;-3.09;89.96
69257;BME280;56376;53.356;-1.748;2023-03-11T00:22:44;98877.22;;;-3.07;90.25
69257;BME280;56376;53.356;-1.748;2023-03-11T00:25:11;98874.66;;;-3.08;90.11
69257;BME280;56376;53.356;-1.748;2023-03-11T00:27:36;98881.47;;;-3.09;89.90
69257;BME280;56376;53.356;-1.748;2023-03-11T00:30:02;98889.13;;;-3.09;90.16
69257;BME280;56376;53.356;-1.748;2023-03-11T00:32:28;98873.81;;;-3.09;90.43
69257;BME280;56376;53.356;-1.748;2023-03-11T00:34:53;98874.63;;;-3.11;90.85
69257;BME280;56376;53.356;-1.748;2023-03-11T00:37:19;98872.06;;;-3.14;91.38
69257;BME280;56376;53.356;-1.748;2023-03-11T00:39:44;98878.88;;;-3.15;91.26
69257;BME280;56376;53.356;-1.748;2023-03-11T00:42:09;98878.81;;;-3.18;90.57
69257;BME280;56376;53.356;-1.748;2023-03-11T00:44:35;98878.81;;;-3.19;90.09
69257;BME280;56376;53.356;-1.748;2023-03-11T00:47:00;98877.09;;;-3.22;90.59
69257;BME280;56376;53.356;-1.748;2023-03-11T00:49:26;98874.56;;;-3.22;91.24
69257;BME280;56376;53.356;-1.748;2023-03-11T00:51:51;98883.03;;;-3.24;90.96
69257;BME280;56376;53.356;-1.748;2023-03-11T00:54:17;98885.59;;;-3.24;90.11
69257;BME280;56376;53.356;-1.748;2023-03-11T00:56:42;98887.25;;;-3.28;90.47
69257;BME280;56376;53.356;-1.748;2023-03-11T00:59:08;98877.03;;;-3.30;91.34
69257;BME280;56376;53.356;-1.748;2023-03-11T01:01:33;98876.19;;;-3.29;91.25
69257;BME280;56376;53.356;-1.748;2023-03-11T01:03:58;98875.31;;;-3.31;91.03
69257;BME280;56376;53.356;-1.748;2023-03-11T01:06:24;98871.03;;;-3.33;90.43
69257;BME280;56376;53.356;-1.748;2023-03-11T01:08:49;98874.41;;;-3.36;90.06
69257;BME280;56376;53.356;-1.748;2023-03-11T01:11:14;98871.00;;;-3.39;90.63
69257;BME280;56376;53.356;-1.748;2023-03-11T01:13:40;98877.78;;;-3.41;90.78
69257;BME280;56376;53.356;-1.748;2023-03-11T01:16:05;98875.22;;;-3.41;91.40
69257;BME280;56376;53.356;-1.748;2023-03-11T01:18:32;98866.72;;;-3.42;92.03
69257;BME280;56376;53.356;-1.748;2023-03-11T01:20:58;98871.78;;;-3.43;91.26
69257;BME280;56376;53.356;-1.748;2023-03-11T01:23:23;98873.50;;;-3.44;90.29
69257;BME280;56376;53.356;-1.748;2023-03-11T01:25:49;98873.47;;;-3.47;90.61
69257;BME280;56376;53.356;-1.748;2023-03-11T01:28:14;98866.66;;;-3.50;90.71
69257;BME280;56376;53.356;-1.748;2023-03-11T01:30:40;98865.75;;;-3.53;90.73
69257;BME280;56376;53.356;-1.748;2023-03-11T01:33:08;98866.56;;;-3.56;90.46
69257;BME280;56376;53.356;-1.748;2023-03-11T01:35:37;98868.28;;;-3.56;90.74
69257;BME280;56376;53.356;-1.748;2023-03-11T01:38:04;98873.38;;;-3.58;91.09
69257;BME280;56376;53.356;-1.748;2023-03-11T01:40:36;98872.47;;;-3.61;91.26
69257;BME280;56376;53.356;-1.748;2023-03-11T01:43:04;98874.16;;;-3.65;91.19
69257;BME280;56376;53.356;-1.748;2023-03-11T01:48:01;98865.50;;;-3.76;90.40
69257;BME280;56376;53.356;-1.748;2023-03-11T01:50:32;98870.59;;;-3.79;89.88
69257;BME280;56376;53.356;-1.748;2023-03-11T01:52:58;98866.25;;;-3.86;90.33
69257;BME280;56376;53.356;-1.748;2023-03-11T01:55:24;98874.72;;;-3.92;89.42
69257;BME280;56376;53.356;-1.748;2023-03-11T01:57:50;98867.88;;;-3.95;89.59
69257;BME280;56376;53.356;-1.748;2023-03-11T02:00:17;98857.66;;;-3.98;90.04
69257;BME280;56376;53.356;-1.748;2023-03-11T02:02:52;98853.38;;;-4.00;90.29
69257;BME280;56376;53.356;-1.748;2023-03-11T02:05:20;98849.03;;;-4.06;89.74
69257;BME280;56376;53.356;-1.748;2023-03-11T02:07:46;98859.22;;;-4.07;89.83
69257;BME280;56376;53.356;-1.748;2023-03-11T02:10:13;98853.22;;;-4.11;89.79
69257;BME280;56376;53.356;-1.748;2023-03-11T02:12:39;98854.94;;;-4.13;90.23
69257;BME280;56376;53.356;-1.748;2023-03-11T02:15:05;98857.47;;;-4.13;90.25
69257;BME280;56376;53.356;-1.748;2023-03-11T02:17:31;98853.19;;;-4.14;90.20
69257;BME280;56376;53.356;-1.748;2023-03-11T02:22:26;98852.31;;;-4.18;90.19
69257;BME280;56376;53.356;-1.748;2023-03-11T02:27:37;98852.25;;;-4.22;91.36
69257;BME280;56376;53.356;-1.748;2023-03-11T02:30:07;98846.25;;;-4.27;90.54
69257;BME280;56376;53.356;-1.748;2023-03-11T02:32:33;98852.94;;;-4.34;89.28
69257;BME280;56376;53.356;-1.748;2023-03-11T02:34:58;98848.59;;;-4.41;89.65
69257;BME280;56376;53.356;-1.748;2023-03-11T02:37:24;98846.00;;;-4.47;89.53
69257;BME280;56376;53.356;-1.748;2023-03-11T02:39:52;98836.59;;;-4.53;89.14
69257;BME280;56376;53.356;-1.748;2023-03-11T02:42:26;98841.56;;;-4.61;89.18
69257;BME280;56376;53.356;-1.748;2023-03-11T02:47:22;98864.44;;;-4.64;89.07
69257;BME280;56376;53.356;-1.748;2023-03-11T02:49:48;98854.25;;;-4.64;88.97
69257;BME280;56376;53.356;-1.748;2023-03-11T02:52:14;98852.59;;;-4.63;89.31
69257;BME280;56376;53.356;-1.748;2023-03-11T02:54:39;98857.69;;;-4.63;90.13
69257;BME280;56376;53.356;-1.748;2023-03-11T02:57:04;98840.63;;;-4.67;90.60
69257;BME280;56376;53.356;-1.748;2023-03-11T02:59:30;98836.38;;;-4.68;90.69
69257;BME280;56376;53.356;-1.748;2023-03-11T03:01:56;98829.56;;;-4.69;90.32
69257;BME280;56376;53.356;-1.748;2023-03-11T03:04:21;98830.38;;;-4.72;90.28
69257;BME280;56376;53.356;-1.748;2023-03-11T03:06:46;98833.66;;;-4.79;90.36
69257;BME280;56376;53.356;-1.748;2023-03-11T03:09:12;98838.66;;;-4.87;89.98
69257;BME280;56376;53.356;-1.748;2023-03-11T03:11:37;98842.09;;;-4.86;89.81
69257;BME280;56376;53.356;-1.748;2023-03-11T03:14:03;98840.34;;;-4.89;89.12
69257;BME280;56376;53.356;-1.748;2023-03-11T03:16:28;98843.75;;;-4.88;88.98
69257;BME280;56376;53.356;-1.748;2023-03-11T03:18:53;98850.47;;;-4.92;89.29
69257;BME280;56376;53.356;-1.748;2023-03-11T03:21:19;98840.28;;;-4.92;89.52
69257;BME280;56376;53.356;-1.748;2023-03-11T03:23:44;98849.59;;;-4.94;90.46
69257;BME280;56376;53.356;-1.748;2023-03-11T03:26:12;98840.19;;;-4.98;90.84
69257;BME280;56376;53.356;-1.748;2023-03-11T03:28:38;98835.88;;;-5.02;90.32
69257;BME280;56376;53.356;-1.748;2023-03-11T03:31:05;98847.81;;;-5.01;90.62
69257;BME280;56376;53.356;-1.748;2023-03-11T03:33:31;98843.56;;;-5.01;90.86
69257;BME280;56376;53.356;-1.748;2023-03-11T03:35:57;98847.78;;;-5.03;89.91
69257;BME280;56376;53.356;-1.748;2023-03-11T03:38:22;98849.34;;;-5.09;89.97
69257;BME280;56376;53.356;-1.748;2023-03-11T03:40:47;98862.03;;;-5.14;88.65
69257;BME280;56376;53.356;-1.748;2023-03-11T03:43:13;98858.56;;;-5.19;88.82
69257;BME280;56376;53.356;-1.748;2023-03-11T03:45:38;98858.44;;;-5.25;88.22
69257;BME280;56376;53.356;-1.748;2023-03-11T03:48:04;98863.63;;;-5.20;88.33
69257;BME280;56376;53.356;-1.748;2023-03-11T03:50:30;98861.91;;;-5.22;88.68
69257;BME280;56376;53.356;-1.748;2023-03-11T03:52:55;98862.78;;;-5.21;88.75
69257;BME280;56376;53.356;-1.748;2023-03-11T03:55:20;98855.09;;;-5.23;88.97
69257;BME280;56376;53.356;-1.748;2023-03-11T03:57:46;98863.59;;;-5.24;89.43
69257;BME280;56376;53.356;-1.748;2023-03-11T04:00:12;98867.03;;;-5.20;89.74
69257;BME280;56376;53.356;-1.748;2023-03-11T04:02:37;98861.84;;;-5.25;89.64
69257;BME280;56376;53.356;-1.748;2023-03-11T04:05:03;98854.28;;;-5.22;89.40
69257;BME280;56376;53.356;-1.748;2023-03-11T04:07:29;98852.50;;;-5.26;90.14
69257;BME280;56376;53.356;-1.748;2023-03-11T04:09:54;98858.41;;;-5.28;90.06
69257;BME280;56376;53.356;-1.748;2023-03-11T04:12:19;98857.47;;;-5.32;89.58
69257;BME280;56376;53.356;-1.748;2023-03-11T04:14:45;98855.78;;;-5.33;89.49
69257;BME280;56376;53.356;-1.748;2023-03-11T04:17:11;98851.53;;;-5.34;89.70
69257;BME280;56376;53.356;-1.748;2023-03-11T04:19:37;98854.94;;;-5.32;90.94
69257;BME280;56376;53.356;-1.748;2023-03-11T04:22:02;98864.31;;;-5.31;90.58
69257;BME280;56376;53.356;-1.748;2023-03-11T04:24:28;98860.09;;;-5.27;90.61
69257;BME280;56376;53.356;-1.748;2023-03-11T04:26:53;98862.66;;;-5.29;90.81
69257;BME280;56376;53.356;-1.748;2023-03-11T04:29:18;98860.91;;;-5.30;90.72
69257;BME280;56376;53.356;-1.748;2023-03-11T04:31:44;98866.00;;;-5.30;92.29
69257;BME280;56376;53.356;-1.748;2023-03-11T04:34:09;98871.09;;;-5.30;92.30
69257;BME280;56376;53.356;-1.748;2023-03-11T04:36:34;98870.28;;;-5.29;92.00
69257;BME280;56376;53.356;-1.748;2023-03-11T04:39:00;98877.00;;;-5.32;92.30
69257;BME280;56376;53.356;-1.748;2023-03-11T04:41:25;98872.72;;;-5.36;91.83
69257;BME280;56376;53.356;-1.748;2023-03-11T04:43:51;98865.00;;;-5.39;91.67
69257;BME280;56376;53.356;-1.748;2023-03-11T04:46:16;98880.31;;;-5.38;91.62
69257;BME280;56376;53.356;-1.748;2023-03-11T04:48:42;98878.53;;;-5.42;91.56
69257;BME280;56376;53.356;-1.748;2023-03-11T04:51:07;98870.88;;;-5.44;91.43
69257;BME280;56376;53.356;-1.748;2023-03-11T04:53:33;98881.91;;;-5.43;91.59
69257;BME280;56376;53.356;-1.748;2023-03-11T04:55:58;98876.75;;;-5.48;92.29
69257;BME280;56376;53.356;-1.748;2023-03-11T04:58:23;98870.75;;;-5.50;92.06
69257;BME280;56376;53.356;-1.748;2023-03-11T05:00:49;98895.41;;;-5.49;92.19
69257;BME280;56376;53.356;-1.748;2023-03-11T05:03:15;98879.28;;;-5.48;92.25
69257;BME280;56376;53.356;-1.748;2023-03-11T05:05:41;98892.06;;;-5.46;92.26
69257;BME280;56376;53.356;-1.748;2023-03-11T05:08:06;98880.19;;;-5.46;92.85
69257;BME280;56376;53.356;-1.748;2023-03-11T05:10:31;98880.22;;;-5.44;92.54
69257;BME280;56376;53.356;-1.748;2023-03-11T05:12:57;98884.47;;;-5.43;92.00
69257;BME280;56376;53.356;-1.748;2023-03-11T05:15:22;98886.97;;;-5.45;92.75
69257;BME280;56376;53.356;-1.748;2023-03-11T05:17:48;98888.66;;;-5.45;93.08
69257;BME280;56376;53.356;-1.748;2023-03-11T05:20:13;98887.03;;;-5.41;94.14
69257;BME280;56376;53.356;-1.748;2023-03-11T05:22:39;98878.47;;;-5.45;94.31
69257;BME280;56376;53.356;-1.748;2023-03-11T05:25:05;98887.91;;;-5.41;94.04
69257;BME280;56376;53.356;-1.748;2023-03-11T05:27:31;98882.81;;;-5.41;94.60
69257;BME280;56376;53.356;-1.748;2023-03-11T05:29:56;98898.94;;;-5.40;94.32
69257;BME280;56376;53.356;-1.748;2023-03-11T05:32:22;98896.44;;;-5.37;93.64
69257;BME280;56376;53.356;-1.748;2023-03-11T05:34:47;98902.38;;;-5.38;93.90
69257;BME280;56376;53.356;-1.748;2023-03-11T05:37:14;98905.75;;;-5.38;94.22
69257;BME280;56376;53.356;-1.748;2023-03-11T05:39:39;98903.31;;;-5.32;94.21
69257;BME280;56376;53.356;-1.748;2023-03-11T05:42:06;98906.78;;;-5.28;94.76
69257;BME280;56376;53.356;-1.748;2023-03-11T05:44:31;98899.16;;;-5.28;94.63
69257;BME280;56376;53.356;-1.748;2023-03-11T05:46:57;98901.69;;;-5.28;94.39
69257;BME280;56376;53.356;-1.748;2023-03-11T05:49:23;98906.75;;;-5.30;94.47
69257;BME280;56376;53.356;-1.748;2023-03-11T05:51:49;98916.13;;;-5.29;94.70
69257;BME280;56376;53.356;-1.748;2023-03-11T05:54:15;98926.31;;;-5.29;94.87
69257;BME280;56376;53.356;-1.748;2023-03-11T05:56:42;98916.13;;;-5.29;94.90
69257;BME280;56376;53.356;-1.748;2023-03-11T05:59:08;98919.47;;;-5.30;94.75
69257;BME280;56376;53.356;-1.748;2023-03-11T06:01:34;98916.97;;;-5.27;95.53
69257;BME280;56376;53.356;-1.748;2023-03-11T06:03:59;98909.38;;;-5.25;95.39
69257;BME280;56376;53.356;-1.748;2023-03-11T06:06:25;98919.59;;;-5.24;95.73
69257;BME280;56376;53.356;-1.748;2023-03-11T06:08:50;98915.31;;;-5.25;96.12
69257;BME280;56376;53.356;-1.748;2023-03-11T06:11:16;98918.78;;;-5.19;96.65
69257;BME280;56376;53.356;-1.748;2023-03-11T06:13:42;98924.00;;;-5.13;97.01
69257;BME280;56376;53.356;-1.748;2023-03-11T06:16:07;98919.78;;;-5.13;96.20
69257;BME280;56376;53.356;-1.748;2023-03-11T06:18:33;98920.63;;;-5.14;96.97
69257;BME280;56376;53.356;-1.748;2023-03-11T06:21:00;98924.00;;;-5.13;97.25
69257;BME280;56376;53.356;-1.748;2023-03-11T06:23:26;98916.38;;;-5.13;97.46
69257;BME280;56376;53.356;-1.748;2023-03-11T06:26:00;98913.88;;;-5.10;97.82
69257;BME280;56376;53.356;-1.748;2023-03-11T06:28:27;98910.47;;;-5.11;97.59
69257;BME280;56376;53.356;-1.748;2023-03-11T06:30:54;98908.78;;;-5.10;98.05
69257;BME280;56376;53.356;-1.748;2023-03-11T06:33:24;98911.34;;;-5.09;98.29
69257;BME280;56376;53.356;-1.748;2023-03-11T06:35:57;98910.56;;;-5.06;98.39
69257;BME280;56376;53.356;-1.748;2023-03-11T06:38:22;98910.56;;;-5.05;98.87
69257;BME280;56376;53.356;-1.748;2023-03-11T06:40:47;98911.41;;;-5.04;99.13
69257;BME280;56376;53.356;-1.748;2023-03-11T06:43:13;98917.38;;;-5.02;98.63
69257;BME280;56376;53.356;-1.748;2023-03-11T06:45:38;98907.19;;;-5.02;98.33
69257;BME280;56376;53.356;-1.748;2023-03-11T06:48:04;98908.06;;;-5.02;99.21
69257;BME280;56376;53.356;-1.748;2023-03-11T06:50:29;98899.56;;;-5.02;99.31
69257;BME280;56376;53.356;-1.748;2023-03-11T06:52:55;98900.44;;;-5.00;99.19
69257;BME280;56376;53.356;-1.748;2023-03-11T06:55:21;98903.84;;;-5.01;99.22
69257;BME280;56376;53.356;-1.748;2023-03-11T06:57:46;98902.13;;;-5.01;99.50
69257;BME280;56376;53.356;-1.748;2023-03-11T07:00:12;98908.94;;;-5.00;100.00
69257;BME280;56376;53.356;-1.748;2023-03-11T07:02:38;98909.88;;;-4.96;99.77
69257;BME280;56376;53.356;-1.748;2023-03-11T07:05:04;98912.41;;;-4.96;100.00
69257;BME280;56376;53.356;-1.748;2023-03-11T07:07:29;98912.44;;;-4.93;99.88
69257;BME280;56376;53.356;-1.748;2023-03-11T07:09:55;98909.09;;;-4.90;100.00
69257;BME280;56376;53.356;-1.748;2023-03-11T07:12:22;98904.03;;;-4.87;100.00
69257;BME280;56376;53.356;-1.748;2023-03-11T07:14:53;98905.81;;;-4.82;100.00
69257;BME280;56376;53.356;-1.748;2023-03-11T07:17:19;98901.59;;;-4.81;100.00
69257;BME280;56376;53.356;-1.748;2023-03-11T07:19:44;98893.13;;;-4.80;100.00
69257;BME280;56376;53.356;-1.748;2023-03-11T07:22:10;98904.19;;;-4.76;100.00
69257;BME280;56376;53.356;-1.748;2023-03-11T07:24:35;98909.34;;;-4.73;100.00
69257;BME280;56376;53.356;-1.748;2023-03-11T07:27:00;98901.72;;;-4.72;100.00
69257;BME280;56376;53.356;-1.748;2023-03-11T07:29:26;98913.66;;;-4.69;100.00
69257;BME280;56376;53.356;-1.748;2023-03-11T07:31:51;98910.31;;;-4.65;100.00
69257;BME280;56376;53.356;-1.748;2023-03-11T07:34:17;98918.84;;;-4.63;100.00
69257;BME280;56376;53.356;-1.748;2023-03-11T07:36:42;98918.81;;;-4.65;100.00
69257;BME280;56376;53.356;-1.748;2023-03-11T07:39:12;98918.84;;;-4.62;100.00
69257;BME280;56376;53.356;-1.748;2023-03-11T07:41:38;98910.41;;;-4.59;100.00
69257;BME280;56376;53.356;-1.748;2023-03-11T07:44:03;98901.00;;;-4.62;100.00
69257;BME280;56376;53.356;-1.748;2023-03-11T07:46:30;98907.03;;;-4.57;100.00
69257;BME280;56376;53.356;-1.748;2023-03-11T07:48:56;98913.00;;;-4.56;100.00
69257;BME280;56376;53.356;-1.748;2023-03-11T07:51:27;98912.19;;;-4.52;100.00
69257;BME280;56376;53.356;-1.748;2023-03-11T07:53:54;98922.41;;;-4.52;100.00
69257;BME280;56376;53.356;-1.748;2023-03-11T07:56:22;98924.97;;;-4.49;100.00
69257;BME280;56376;53.356;-1.748;2023-03-11T07:58:48;98928.47;;;-4.44;100.00
69257;BME280;56376;53.356;-1.748;2023-03-11T08:01:17;98933.59;;;-4.42;100.00
69257;BME280;56376;53.356;-1.748;2023-03-11T08:03:47;98931.06;;;-4.39;100.00
69257;BME280;56376;53.356;-1.748;2023-03-11T08:06:23;98937.09;;;-4.36;100.00
69257;BME280;56376;53.356;-1.748;2023-03-11T08:08:49;98937.94;;;-4.33;100.00
69257;BME280;56376;53.356;-1.748;2023-03-11T08:11:16;98931.31;;;-4.22;100.00
69257;BME280;56376;53.356;-1.748;2023-03-11T08:13:43;98927.19;;;-4.11;100.00
69257;BME280;56376;53.356;-1.748;2023-03-11T08:16:11;98938.47;;;-3.95;100.00
69257;BME280;56376;53.356;-1.748;2023-03-11T08:18:37;98933.59;;;-3.74;100.00
69257;BME280;56376;53.356;-1.748;2023-03-11T08:21:07;98938.09;;;-3.53;100.00
69257;BME280;56376;53.356;-1.748;2023-03-11T08:23:33;98926.38;;;-3.34;100.00
69257;BME280;56376;53.356;-1.748;2023-03-11T08:26:07;98920.59;;;-3.13;100.00
69257;BME280;56376;53.356;-1.748;2023-03-11T08:28:33;98918.22;;;-2.94;100.00
69257;BME280;56376;53.356;-1.748;2023-03-11T08:30:59;98932.81;;;-2.79;100.00
69257;BME280;56376;53.356;-1.748;2023-03-11T08:33:25;98920.91;;;-2.73;100.00
69257;BME280;56376;53.356;-1.748;2023-03-11T08:35:51;98911.56;;;-2.68;100.00
69257;BME280;56376;53.356;-1.748;2023-03-11T08:38:16;98919.28;;;-2.63;100.00
69257;BME280;56376;53.356;-1.748;2023-03-11T08:40:41;98928.69;;;-2.57;100.00
69257;BME280;56376;53.356;-1.748;2023-03-11T08:43:07;98923.63;;;-2.54;100.00
69257;BME280;56376;53.356;-1.748;2023-03-11T08:45:32;98934.72;;;-2.48;100.00
69257;BME280;56376;53.356;-1.748;2023-03-11T08:47:58;98927.09;;;-2.43;100.00
69257;BME280;56376;53.356;-1.748;2023-03-11T08:50:23;98921.16;;;-2.34;100.00
69257;BME280;56376;53.356;-1.748;2023-03-11T08:52:49;98918.66;;;-2.25;100.00
69257;BME280;56376;53.356;-1.748;2023-03-11T08:55:16;98908.47;;;-2.19;100.00
69257;BME280;56376;53.356;-1.748;2023-03-11T08:57:48;98919.63;;;-2.06;100.00
69257;BME280;56376;53.356;-1.748;2023-03-11T09:00:14;98912.84;;;-1.95;100.00
69257;BME280;56376;53.356;-1.748;2023-03-11T09:02:39;98912.03;;;-1.86;100.00
69257;BME280;56376;53.356;-1.748;2023-03-11T09:05:06;98912.91;;;-1.81;99.94
69257;BME280;56376;53.356;-1.748;2023-03-11T09:07:31;98916.28;;;-1.79;99.44
69257;BME280;56376;53.356;-1.748;2023-03-11T09:09:56;98914.63;;;-1.72;98.97
69257;BME280;56376;53.356;-1.748;2023-03-11T09:12:22;98916.38;;;-1.64;99.14
69257;BME280;56376;53.356;-1.748;2023-03-11T09:14:47;98908.72;;;-1.48;98.61
69257;BME280;56376;53.356;-1.748;2023-03-11T09:17:13;98901.06;;;-1.35;98.38
69257;BME280;56376;53.356;-1.748;2023-03-11T09:19:38;98912.19;;;-1.23;98.15
69257;BME280;56376;53.356;-1.748;2023-03-11T09:22:04;98906.22;;;-1.18;97.17
69257;BME280;56376;53.356;-1.748;2023-03-11T09:24:33;98916.47;;;-1.07;96.11
69257;BME280;56376;53.356;-1.748;2023-03-11T09:26:59;98919.03;;;-0.90;95.94
69257;BME280;56376;53.356;-1.748;2023-03-11T09:29:25;98913.88;;;-0.73;94.93
69257;BME280;56376;53.356;-1.748;2023-03-11T09:31:50;98916.44;;;-0.50;93.97
69257;BME280;56376;53.356;-1.748;2023-03-11T09:34:16;98919.81;;;-0.25;92.89
69257;BME280;56376;53.356;-1.748;2023-03-11T09:36:41;98924.88;;;0.01;92.12
69257;BME280;56376;53.356;-1.748;2023-03-11T09:39:07;98917.91;;;0.26;90.42
69257;BME280;56376;53.356;-1.748;2023-03-11T09:41:40;98918.63;;;0.53;89.62
69257;BME280;56376;53.356;-1.748;2023-03-11T09:44:41;98921.94;;;0.76;87.18
69257;BME280;56376;53.356;-1.748;2023-03-11T09:54:52;98923.03;;;1.54;80.21
69257;BME280;56376;53.356;-1.748;2023-03-11T09:57:38;98913.53;;;1.56;80.31
69257;BME280;56376;53.356;-1.748;2023-03-11T10:00:05;98909.25;;;1.58;79.96
69257;BME280;56376;53.356;-1.748;2023-03-11T10:02:31;98904.06;;;1.61;79.46
69257;BME280;56376;53.356;-1.748;2023-03-11T10:07:39;98902.34;;;1.62;78.57
69257;BME280;56376;53.356;-1.748;2023-03-11T10:10:11;98904.94;;;1.62;78.81
69257;BME280;56376;53.356;-1.748;2023-03-11T10:13:03;98901.47;;;1.61;78.89
69257;BME280;56376;53.356;-1.748;2023-03-11T10:15:49;98899.75;;;1.65;79.13
69257;BME280;56376;53.356;-1.748;2023-03-11T10:21:33;98909.16;;;1.69;78.69
69257;BME280;56376;53.356;-1.748;2023-03-11T10:24:37;98903.06;;;1.75;78.74
69257;BME280;56376;53.356;-1.748;2023-03-11T10:27:18;98901.31;;;1.80;78.83
69257;BME280;56376;53.356;-1.748;2023-03-11T10:35:35;98917.59;;;1.82;78.41
69257;BME280;56376;53.356;-1.748;2023-03-11T10:38:20;98910.72;;;1.81;78.18
69257;BME280;56376;53.356;-1.748;2023-03-11T10:40:47;98913.28;;;1.82;78.24
69257;BME280;56376;53.356;-1.748;2023-03-11T10:43:23;98900.38;;;1.84;78.46
69257;BME280;56376;53.356;-1.748;2023-03-11T10:45:50;98894.34;;;1.86;79.13
69257;BME280;56376;53.356;-1.748;2023-03-11T10:48:18;98896.84;;;1.94;80.17
69257;BME280;56376;53.356;-1.748;2023-03-11T10:50:46;98898.47;;;2.01;80.20
69257;BME280;56376;53.356;-1.748;2023-03-11T10:53:18;98894.94;;;2.08;79.32
69257;BME280;56376;53.356;-1.748;2023-03-11T10:55:49;98889.66;;;2.19;79.17
69257;BME280;56376;53.356;-1.748;2023-03-11T10:58:19;98884.41;;;2.28;79.46
69257;BME280;56376;53.356;-1.748;2023-03-11T11:00:44;98895.50;;;2.33;80.10
69257;BME280;56376;53.356;-1.748;2023-03-11T11:03:19;98890.28;;;2.36;79.49
69257;BME280;56376;53.356;-1.748;2023-03-11T11:05:57;98884.25;;;2.39;78.66
69257;BME280;56376;53.356;-1.748;2023-03-11T11:08:23;98871.34;;;2.42;78.63
69257;BME280;56376;53.356;-1.748;2023-03-11T11:10:58;98872.09;;;2.49;78.37
69257;BME280;56376;53.356;-1.748;2023-03-11T11:13:32;98877.97;;;2.57;78.41
69257;BME280;56376;53.356;-1.748;2023-03-11T11:21:12;98866.31;;;2.90;77.83
69257;BME280;56376;53.356;-1.748;2023-03-11T11:23:49;98853.13;;;3.07;77.37
69257;BME280;56376;53.356;-1.748;2023-03-11T11:26:25;98864.88;;;3.25;76.61
69257;BME280;56376;53.356;-1.748;2023-03-11T11:29:20;98861.91;;;3.46;75.98
69257;BME280;56376;53.356;-1.748;2023-03-11T11:31:45;98848.78;;;3.60;75.38
69257;BME280;56376;53.356;-1.748;2023-03-11T11:34:29;98856.94;;;3.82;74.81
69257;BME280;56376;53.356;-1.748;2023-03-11T11:36:56;98853.25;;;3.96;73.57
69257;BME280;56376;53.356;-1.748;2023-03-11T11:39:25;98843.53;;;4.07;72.84
69257;BME280;56376;53.356;-1.748;2023-03-11T11:41:51;98841.44;;;4.24;72.09
69257;BME280;56376;53.356;-1.748;2023-03-11T11:44:20;98846.25;;;4.40;71.98
69257;BME280;56376;53.356;-1.748;2023-03-11T11:47:12;98846.00;;;4.52;71.44
69257;BME280;56376;53.356;-1.748;2023-03-11T11:50:05;98849.97;;;4.67;72.46
69257;BME280;56376;53.356;-1.748;2023-03-11T11:52:39;98846.91;;;4.87;71.99
69257;BME280;56376;53.356;-1.748;2023-03-11T11:55:27;98842.38;;;4.96;71.58
69257;BME280;56376;53.356;-1.748;2023-03-11T11:57:53;98843.97;;;5.01;69.64
69257;BME280;56376;53.356;-1.748;2023-03-11T12:00:21;98846.63;;;4.99;69.05
69257;BME280;56376;53.356;-1.748;2023-03-11T12:05:55;98846.75;;;4.93;69.11
69257;BME280;56376;53.356;-1.748;2023-03-11T12:10:57;98842.84;;;5.12;68.19
69257;BME280;56376;53.356;-1.748;2023-03-11T12:16:10;98828.53;;;5.32;66.89
69257;BME280;56376;53.356;-1.748;2023-03-11T12:26:25;98836.63;;;5.52;66.48
69257;BME280;56376;53.356;-1.748;2023-03-11T12:29:27;98829.78;;;5.50;65.67
69257;BME280;56376;53.356;-1.748;2023-03-11T12:31:55;98830.63;;;5.50;66.41
69257;BME280;56376;53.356;-1.748;2023-03-11T12:34:22;98834.81;;;5.54;66.27
69257;BME280;56376;53.356;-1.748;2023-03-11T12:36:50;98820.06;;;5.58;65.90
69257;BME280;56376;53.356;-1.748;2023-03-11T12:39:37;98824.94;;;5.69;65.67
69257;BME280;56376;53.356;-1.748;2023-03-11T12:42:17;98823.88;;;5.76;66.01
69257;BME280;56376;53.356;-1.748;2023-03-11T12:44:44;98827.38;;;5.75;64.73
69257;BME280;56376;53.356;-1.748;2023-03-11T12:49:40;98816.28;;;5.70;65.37
69257;BME280;56376;53.356;-1.748;2023-03-11T13:08:28;98789.13;;;5.83;65.03
69257;BME280;56376;53.356;-1.748;2023-03-11T13:10:57;98779.56;;;5.85;64.34
69257;BME280;56376;53.356;-1.748;2023-03-11T13:15:54;98777.97;;;5.79;64.73
69257;BME280;56376;53.356;-1.748;2023-03-11T13:18:25;98770.41;;;5.73;65.36
69257;BME280;56376;53.356;-1.748;2023-03-11T13:20:56;98764.41;;;5.71;65.54
69257;BME280;56376;53.356;-1.748;2023-03-11T13:28:44;98761.88;;;5.70;66.00
69257;BME280;56376;53.356;-1.748;2023-03-11T13:31:49;98761.00;;;5.69;65.72
69257;BME280;56376;53.356;-1.748;2023-03-11T13:37:28;98754.09;;;5.70;65.46
69257;BME280;56376;53.356;-1.748;2023-03-11T13:42:43;98743.75;;;5.68;64.82
69257;BME280;56376;53.356;-1.748;2023-03-11T13:45:35;98736.84;;;5.69;65.37
69257;BME280;56376;53.356;-1.748;2023-03-11T13:48:05;98733.22;;;5.74;66.02
69257;BME280;56376;53.356;-1.748;2023-03-11T13:50:42;98739.16;;;5.78;66.12
69257;BME280;56376;53.356;-1.748;2023-03-11T13:53:16;98736.38;;;5.84;66.84
69257;BME280;56376;53.356;-1.748;2023-03-11T13:55:44;98733.69;;;5.87;66.59
69257;BME280;56376;53.356;-1.748;2023-03-11T13:58:21;98738.75;;;5.92;65.33
69257;BME280;56376;53.356;-1.748;2023-03-11T14:00:55;98737.00;;;5.94;64.95
69257;BME280;56376;53.356;-1.748;2023-03-11T14:03:23;98742.06;;;5.97;64.90
69257;BME280;56376;53.356;-1.748;2023-03-11T14:06:18;98728.94;;;6.03;64.77
69257;BME280;56376;53.356;-1.748;2023-03-11T14:08:54;98729.81;;;6.02;65.10
69257;BME280;56376;53.356;-1.748;2023-03-11T14:11:25;98738.47;;;6.02;65.32
69257;BME280;56376;53.356;-1.748;2023-03-11T14:13:51;98731.53;;;6.03;64.90
69257;BME280;56376;53.356;-1.748;2023-03-11T14:16:38;98738.53;;;5.99;64.76
69257;BME280;56376;53.356;-1.748;2023-03-11T14:19:16;98730.00;;;5.97;65.42